createdAt,value
2019-06-10T00:00:13.737Z,17.58
2019-06-10T00:04:18.829Z,17.71
2019-06-10T00:08:24.589Z,17.72
2019-06-10T00:12:31.488Z,18.02
2019-06-10T00:16:37.336Z,18.05
2019-06-10T00:20:43.205Z,18.02
2019-06-10T00:24:48.982Z,17.68
2019-06-10T00:28:54.673Z,17.58
2019-06-10T00:33:02.759Z,17.78
2019-06-10T00:37:12.013Z,18.45
2019-06-10T00:41:15.283Z,18.62
2019-06-10T00:45:21.593Z,18.36
2019-06-10T00:49:28.427Z,18.68
2019-06-10T00:53:34.201Z,19.12
2019-06-10T00:57:41.831Z,19.15
2019-06-10T01:01:47.673Z,18.17
2019-06-10T01:05:53.347Z,17.62
2019-06-10T01:10:00.973Z,17.80
2019-06-10T01:14:07.400Z,17.97
2019-06-10T01:18:33.666Z,17.75
2019-06-10T01:22:21.328Z,17.57
2019-06-10T01:26:27.119Z,17.60
2019-06-10T01:30:32.884Z,17.62
2019-06-10T01:34:38.609Z,17.84
2019-06-10T01:38:44.522Z,18.27
2019-06-10T01:42:51.181Z,17.76
2019-06-10T01:46:56.932Z,17.30
2019-06-10T01:51:02.655Z,17.05
2019-06-10T01:55:11.866Z,17.38
2019-06-10T01:59:16.956Z,17.64
2019-06-10T02:03:24.054Z,17.75
2019-06-10T02:07:31.958Z,17.26
2019-06-10T02:11:37.934Z,16.93
2019-06-10T02:15:43.641Z,16.84
2019-06-10T02:19:50.889Z,16.54
2019-06-10T02:23:56.783Z,16.53
2019-06-10T02:28:02.516Z,16.68
2019-06-10T02:32:08.211Z,17.14
2019-06-10T02:36:17.435Z,17.01
2019-06-10T02:40:29.284Z,16.86
2019-06-10T02:44:33.351Z,16.93
2019-06-10T02:48:36.605Z,17.07
2019-06-10T02:52:44.346Z,16.89
2019-06-10T02:56:53.433Z,16.53
2019-06-10T03:00:57.213Z,16.63
2019-06-10T03:05:04.509Z,16.86
2019-06-10T03:09:10.379Z,17.00
2019-06-10T03:13:16.104Z,16.77
2019-06-10T03:17:25.856Z,16.84
2019-06-10T03:21:32.299Z,17.43
2019-06-10T03:25:38.316Z,17.29
2019-06-10T03:29:44.016Z,16.96
2019-06-10T03:33:53.892Z,16.85
2019-06-10T03:37:57.358Z,17.38
2019-06-10T03:42:03.089Z,17.36
2019-06-10T03:46:08.786Z,16.96
2019-06-10T03:50:15.049Z,16.79
2019-06-10T03:54:24.451Z,16.74
2019-06-10T03:58:29.265Z,16.65
2019-06-10T04:02:35.198Z,16.89
2019-06-10T04:06:44.092Z,16.82
2019-06-10T04:10:48.345Z,16.79
2019-06-10T04:14:54.211Z,16.95
2019-06-10T04:19:02.326Z,16.82
2019-06-10T04:23:07.419Z,16.63
2019-06-10T04:27:13.240Z,16.56
2019-06-10T04:31:18.944Z,16.84
2019-06-10T04:35:26.230Z,17.03
2019-06-10T04:39:33.649Z,17.16
2019-06-10T04:43:39.617Z,17.50
2019-06-10T04:47:46.391Z,17.21
2019-06-10T04:51:52.507Z,17.29
2019-06-10T04:55:58.200Z,17.53
2019-06-10T05:00:11.200Z,17.79
2019-06-10T05:04:12.540Z,17.43
2019-06-10T05:08:19.011Z,17.43
2019-06-10T05:12:25.326Z,17.71
2019-06-10T05:16:35.539Z,18.10
2019-06-10T05:20:52.075Z,18.28
2019-06-10T05:24:47.802Z,18.31
2019-06-10T05:28:53.866Z,18.47
2019-06-10T05:32:59.607Z,18.35
2019-06-10T05:37:05.395Z,18.28
2019-06-10T05:41:13.354Z,18.42
2019-06-10T05:45:18.718Z,18.43
2019-06-10T05:49:25.968Z,18.54
2019-06-10T05:53:34.968Z,18.44
2019-06-10T05:57:39.254Z,18.59
2019-06-10T06:01:45.064Z,18.72
2019-06-10T06:05:52.498Z,18.82
2019-06-10T06:09:58.518Z,18.79
2019-06-10T06:14:04.483Z,18.43
2019-06-10T06:18:13.428Z,18.42
2019-06-10T06:22:17.931Z,18.50
2019-06-10T06:26:23.998Z,18.56
2019-06-10T06:30:30.187Z,18.69
2019-06-10T06:34:38.582Z,18.56
2019-06-10T06:38:43.958Z,18.53
2019-06-10T06:42:52.412Z,18.63
2019-06-10T06:46:57.276Z,18.94
2019-06-10T06:51:08.165Z,19.15
2019-06-10T06:55:12.817Z,19.40
2019-06-10T06:59:18.732Z,19.48
2019-06-10T07:03:24.460Z,19.49
2019-06-10T07:07:33.097Z,18.54
2019-06-10T07:11:45.047Z,19.17
2019-06-10T07:15:49.849Z,20.23
2019-06-10T07:19:57.590Z,21.01
2019-06-10T07:24:03.349Z,21.46
2019-06-10T07:28:09.066Z,21.98
2019-06-10T07:32:14.909Z,22.28
2019-06-10T07:36:23.329Z,22.63
2019-06-10T07:40:28.268Z,22.90
2019-06-10T07:44:34.878Z,21.90
2019-06-10T07:48:46.197Z,19.92
2019-06-10T07:52:48.919Z,20.58
2019-06-10T07:56:54.758Z,21.22
2019-06-10T08:01:02.661Z,20.91
2019-06-10T08:05:08.425Z,20.87
2019-06-10T08:09:14.220Z,21.54
2019-06-10T08:13:19.934Z,21.65
2019-06-10T08:17:25.722Z,21.70
2019-06-10T08:21:32.295Z,21.00
2019-06-10T08:25:38.497Z,21.10
2019-06-10T08:29:48.063Z,21.38
2019-06-10T08:33:53.454Z,21.52
2019-06-10T08:37:59.429Z,21.41
2019-06-10T08:42:05.579Z,21.07
2019-06-10T08:46:13.135Z,21.52
2019-06-10T08:50:22.266Z,21.20
2019-06-10T08:54:26.997Z,21.18
2019-06-10T08:58:33.262Z,21.00
2019-06-10T09:02:40.881Z,21.13
2019-06-10T09:06:49.557Z,21.11
2019-06-10T09:10:55.391Z,21.14
2019-06-10T09:15:03.735Z,21.28
2019-06-10T09:19:09.981Z,21.08
2019-06-10T09:23:22.091Z,21.55
2019-06-10T09:27:26.879Z,21.87
2019-06-10T09:31:33.156Z,23.15
2019-06-10T09:35:39.915Z,23.21
2019-06-10T09:39:52.299Z,24.72
2019-06-10T09:43:56.900Z,24.11
2019-06-10T09:48:03.992Z,24.11
2019-06-10T09:52:09.947Z,23.72
2019-06-10T09:56:15.832Z,23.88
2019-06-10T10:00:50.465Z,24.23
2019-06-10T10:04:58.354Z,25.65
2019-06-10T10:09:04.097Z,26.00
2019-06-10T10:13:13.075Z,26.56
2019-06-10T10:17:19.175Z,26.17
2019-06-10T10:21:24.871Z,24.75
2019-06-10T10:25:32.807Z,25.77
2019-06-10T10:29:38.418Z,25.11
2019-06-10T10:33:44.358Z,24.70
2019-06-10T10:37:53.447Z,25.06
2019-06-10T10:41:57.675Z,25.63
2019-06-10T10:46:05.448Z,26.84
2019-06-10T10:50:13.919Z,27.48
2019-06-10T10:54:29.827Z,26.44
2019-06-10T10:58:27.315Z,26.32
2019-06-10T11:02:33.144Z,26.92
2019-06-10T11:06:38.954Z,26.85
2019-06-10T11:10:49.170Z,25.78
2019-06-10T11:15:00.472Z,25.51
2019-06-10T11:19:02.803Z,25.09
2019-06-10T11:23:08.665Z,24.37
2019-06-10T11:27:14.343Z,23.79
2019-06-10T11:31:22.583Z,23.46
2019-06-10T11:35:27.691Z,23.42
2019-06-10T11:39:36.603Z,23.67
2019-06-10T11:43:42.939Z,23.83
2019-06-10T11:47:49.367Z,23.62
2019-06-10T11:51:57.640Z,23.43
2019-06-10T11:56:03.517Z,23.55
2019-06-10T12:00:14.802Z,23.55
2019-06-10T12:04:20.391Z,23.34
2019-06-10T12:08:26.472Z,23.26
2019-06-10T12:12:33.730Z,23.34
2019-06-10T12:20:47.639Z,23.04
2019-06-10T12:25:18.728Z,23.12
2019-06-10T12:29:05.290Z,22.99
2019-06-10T12:33:08.401Z,23.44
2019-06-10T12:37:15.917Z,23.50
2019-06-10T12:41:23.228Z,23.84
2019-06-10T12:45:32.517Z,23.91
2019-06-10T12:49:37.739Z,23.86
2019-06-10T12:53:43.638Z,23.75
2019-06-10T12:57:49.336Z,23.70
2019-06-10T13:01:55.837Z,23.67
2019-06-10T13:06:07.193Z,23.65
2019-06-10T13:10:15.289Z,23.61
2019-06-10T13:14:22.056Z,23.57
2019-06-10T13:18:27.956Z,23.51
2019-06-10T13:22:33.734Z,23.43
2019-06-10T13:26:42.996Z,23.37
2019-06-10T13:30:47.853Z,23.30
2019-06-10T13:34:56.429Z,23.29
2019-06-10T13:39:05.905Z,23.25
2019-06-10T13:43:09.650Z,23.20
2019-06-10T13:47:15.391Z,23.18
2019-06-10T13:51:21.155Z,23.20
2019-06-10T13:55:27.168Z,23.18
2019-06-10T13:59:32.899Z,23.13
2019-06-10T14:03:38.653Z,23.16
2019-06-10T14:07:44.469Z,23.16
2019-06-10T14:11:50.168Z,23.04
2019-06-10T14:15:55.895Z,22.37
2019-06-10T14:20:01.810Z,21.84
2019-06-10T14:24:08.196Z,21.45
2019-06-10T14:28:32.269Z,21.45
2019-06-10T14:32:22.489Z,21.14
2019-06-10T14:36:28.482Z,21.90
2019-06-10T14:40:34.205Z,22.09
2019-06-10T14:44:42.004Z,22.02
2019-06-10T14:48:47.427Z,22.36
2019-06-10T14:52:53.159Z,22.55
2019-06-10T14:56:59.276Z,22.62
2019-06-10T15:01:07.510Z,22.89
2019-06-10T15:05:15.563Z,22.93
2019-06-10T15:09:22.613Z,22.88
2019-06-10T15:13:28.034Z,22.85
2019-06-10T15:17:34.190Z,22.79
2019-06-10T15:21:39.919Z,22.76
2019-06-10T15:25:52.541Z,22.39
2019-06-10T15:29:53.172Z,22.36
2019-06-10T15:33:59.292Z,22.10
2019-06-10T15:38:05.176Z,22.37
2019-06-10T15:42:11.545Z,22.64
2019-06-10T15:46:17.976Z,22.80
2019-06-10T15:50:27.457Z,22.83
2019-06-10T15:54:33.337Z,22.81
2019-06-10T15:58:39.239Z,22.90
2019-06-10T16:02:45.033Z,22.91
2019-06-10T16:06:52.954Z,22.84
2019-06-10T16:10:58.728Z,23.02
2019-06-10T16:15:06.442Z,22.95
2019-06-10T16:19:13.338Z,22.85
2019-06-10T16:23:19.859Z,22.75
2019-06-10T16:27:43.682Z,22.63
2019-06-10T16:31:33.351Z,22.62
2019-06-10T16:35:39.082Z,22.67
2019-06-10T16:39:44.887Z,22.77
2019-06-10T16:43:52.237Z,22.70
2019-06-10T16:47:58.069Z,21.07
2019-06-10T16:52:03.907Z,20.35
2019-06-10T16:56:12.025Z,20.04
2019-06-10T17:00:18.398Z,19.55
2019-06-10T17:04:27.264Z,19.50
2019-06-10T17:08:33.418Z,19.74
2019-06-10T17:12:39.311Z,19.37
2019-06-10T17:16:45.007Z,18.98
2019-06-10T17:20:53.288Z,18.95
2019-06-10T17:24:58.213Z,19.05
2019-06-10T17:29:04.090Z,19.28
2019-06-10T17:33:09.869Z,19.40
2019-06-10T17:37:15.573Z,19.58
2019-06-10T17:41:25.840Z,19.44
2019-06-10T17:45:30.587Z,19.28
2019-06-10T17:49:36.635Z,19.15
2019-06-10T17:53:42.799Z,19.38
2019-06-10T17:57:48.576Z,19.63
2019-06-10T18:01:56.283Z,19.76
2019-06-10T18:06:02.771Z,19.85
2019-06-10T18:10:09.380Z,19.57
2019-06-10T18:14:15.132Z,19.35
2019-06-10T18:18:20.860Z,19.49
2019-06-10T18:22:28.475Z,19.45
2019-06-10T18:26:37.622Z,19.31
2019-06-10T18:30:43.435Z,19.39
2019-06-10T18:34:49.239Z,19.38
2019-06-10T18:38:54.913Z,19.44
2019-06-10T18:43:02.784Z,19.63
2019-06-10T18:47:08.148Z,19.78
2019-06-10T18:51:13.931Z,19.40
2019-06-10T18:55:22.587Z,19.04
2019-06-10T18:59:28.449Z,18.99
2019-06-10T19:03:36.267Z,19.33
2019-06-10T19:07:42.860Z,19.47
2019-06-10T19:11:49.002Z,19.35
2019-06-10T19:15:54.745Z,19.12
2019-06-10T19:20:00.502Z,18.90
2019-06-10T19:24:06.816Z,18.69
2019-06-10T19:28:13.618Z,18.68
2019-06-10T19:32:19.331Z,18.58
2019-06-10T19:36:25.036Z,18.56
2019-06-10T19:40:32.560Z,18.51
2019-06-10T19:44:39.214Z,18.48
2019-06-10T19:48:57.301Z,18.39
2019-06-10T19:52:52.391Z,18.42
2019-06-10T19:56:58.105Z,18.35
2019-06-10T20:01:03.838Z,18.30
2019-06-10T20:05:12.323Z,18.27
2019-06-10T20:09:17.596Z,18.40
2019-06-10T20:13:23.351Z,18.74
2019-06-10T20:17:29.196Z,18.91
2019-06-10T20:21:36.013Z,19.01
2019-06-10T20:25:44.283Z,19.00
2019-06-10T20:30:03.687Z,19.31
2019-06-10T20:33:58.680Z,19.80
2019-06-10T20:38:05.066Z,20.18
2019-06-10T20:42:12.902Z,20.29
2019-06-10T20:46:18.706Z,20.06
2019-06-10T20:50:24.555Z,19.08
2019-06-10T20:54:32.305Z,18.68
2019-06-10T20:58:38.741Z,18.50
2019-06-10T21:02:45.905Z,18.13
2019-06-10T21:06:53.737Z,17.88
2019-06-10T21:11:02.678Z,17.94
2019-06-10T21:15:09.701Z,18.38
2019-06-10T21:19:15.417Z,18.66
2019-06-10T21:23:22.501Z,18.90
2019-06-10T21:27:28.280Z,19.02
2019-06-10T21:31:34.167Z,18.63
2019-06-10T21:35:42.473Z,18.60
2019-06-10T21:39:49.595Z,18.80
2019-06-10T21:43:59.495Z,18.93
2019-06-10T21:48:04.183Z,19.12
2019-06-10T21:52:10.129Z,19.11
2019-06-10T21:56:15.883Z,19.11
2019-06-10T22:00:24.462Z,18.82
2019-06-10T22:04:32.628Z,18.40
2019-06-10T22:08:38.601Z,18.40
2019-06-10T22:12:44.317Z,18.25
2019-06-10T22:16:50.895Z,18.07
2019-06-10T22:20:57.759Z,18.05
2019-06-10T22:25:03.844Z,18.35
2019-06-10T22:29:09.528Z,18.34
2019-06-10T22:33:15.387Z,17.99
2019-06-10T22:37:21.099Z,17.82
2019-06-10T22:41:26.818Z,17.67
2019-06-10T22:45:32.656Z,17.80
2019-06-10T22:49:38.382Z,18.07
2019-06-10T22:53:44.094Z,18.07
2019-06-10T22:57:51.785Z,17.83
2019-06-10T23:01:59.978Z,17.65
2019-06-10T23:06:05.831Z,17.52
2019-06-10T23:10:12.359Z,17.51
2019-06-10T23:14:18.245Z,17.94
2019-06-10T23:18:23.967Z,18.23
2019-06-10T23:22:29.771Z,18.30
2019-06-10T23:26:35.515Z,18.35
2019-06-10T23:30:42.713Z,18.32
2019-06-10T23:34:48.955Z,18.39
2019-06-10T23:38:54.903Z,18.38
2019-06-10T23:43:01.657Z,18.45
2019-06-10T23:47:08.167Z,18.48
2019-06-10T23:51:13.922Z,18.33
2019-06-10T23:55:19.634Z,18.26
2019-06-10T23:59:25.424Z,18.13
